Terminal Aerodrome Forecast
Issued by NWS

Home | Current Version | Previous Version | Graphics & Text | Print | Product List | Glossary On
Versions: 1 2 3 4 5 6 7 8 9 10 11 12 13 14 15 16 17
265
FTUS41 KCLE 242335
TAFFDY
TAF
KFDY 242335Z 2500/2524 21010KT P6SM BKN035 OVC080
      TEMPO 2500/2502 2SM -TSRA OVC015CB
     FM250200 23006KT P6SM BKN035 BKN080
     FM250900 23006KT 3SM BR SCT020
     FM251400 23010KT P6SM BKN020
     FM251600 23010KT P6SM BKN040
     FM251800 23010KT 3SM TSRA OVC025CB
     FM252000 27008KT P6SM SCT025 BKN080=

USA.gov is the U.S. government's official web portal to all federal, state and local government web resources and services.